createdAt,value
2022-08-03T00:01:37.690Z,22.10
2022-08-03T00:04:06.395Z,22.10
2022-08-03T00:06:37.179Z,22.10
2022-08-03T00:09:07.571Z,22.00
2022-08-03T00:11:36.660Z,22.00
2022-08-03T00:14:05.316Z,22.00
2022-08-03T00:16:33.829Z,22.00
2022-08-03T00:19:02.628Z,22.00
2022-08-03T00:21:30.886Z,22.00
2022-08-03T00:23:59.007Z,22.00
2022-08-03T00:26:28.458Z,21.90
2022-08-03T00:28:56.581Z,21.90
2022-08-03T00:31:40.019Z,21.90
2022-08-03T00:34:12.715Z,21.90
2022-08-03T00:36:41.063Z,21.90
2022-08-03T00:39:09.480Z,21.90
2022-08-03T00:41:38.911Z,21.80
2022-08-03T00:44:06.924Z,21.80
2022-08-03T00:46:34.983Z,21.70
2022-08-03T00:49:03.815Z,21.70
2022-08-03T00:51:32.811Z,21.60
2022-08-03T00:54:00.876Z,21.60
2022-08-03T00:56:29.275Z,21.60
2022-08-03T00:58:59.080Z,21.50
2022-08-03T01:01:27.204Z,21.50
2022-08-03T01:04:00.625Z,21.50
2022-08-03T01:06:39.444Z,21.50
2022-08-03T01:09:16.555Z,21.50
2022-08-03T01:12:01.219Z,21.40
2022-08-03T01:14:38.737Z,21.40
2022-08-03T01:17:15.957Z,21.30
2022-08-03T01:19:50.974Z,21.30
2022-08-03T01:23:06.494Z,21.30
2022-08-03T01:25:46.927Z,21.20
2022-08-03T01:28:40.152Z,21.30
2022-08-03T01:31:12.520Z,21.20
2022-08-03T01:33:43.835Z,21.20
2022-08-03T01:36:17.094Z,21.20
2022-08-03T01:38:50.526Z,21.20
2022-08-03T01:41:22.340Z,21.10
2022-08-03T01:44:27.592Z,21.10
2022-08-03T01:46:48.801Z,21.00
2022-08-03T01:49:17.904Z,21.00
2022-08-03T01:51:57.875Z,21.00
2022-08-03T01:54:35.880Z,21.00
2022-08-03T01:57:04.934Z,21.00
2022-08-03T01:59:35.966Z,21.00
2022-08-03T02:02:32.171Z,20.90
2022-08-03T02:04:56.651Z,20.80
2022-08-03T02:07:25.775Z,20.70
2022-08-03T02:09:56.177Z,20.80
2022-08-03T02:12:27.871Z,20.80
2022-08-03T02:14:57.713Z,20.80
2022-08-03T02:17:38.705Z,20.80
2022-08-03T02:20:10.273Z,20.80
2022-08-03T02:22:41.975Z,20.70
2022-08-03T02:25:11.467Z,20.70
2022-08-03T02:27:44.119Z,20.70
2022-08-03T02:30:14.675Z,20.70
2022-08-03T02:32:49.532Z,20.60
2022-08-03T02:35:20.385Z,20.60
2022-08-03T02:37:51.496Z,20.60
2022-08-03T02:40:22.099Z,20.60
2022-08-03T02:42:54.512Z,20.60
2022-08-03T02:45:24.944Z,20.70
2022-08-03T02:47:56.699Z,20.60
2022-08-03T02:50:27.584Z,20.60
2022-08-03T02:52:57.222Z,20.60
2022-08-03T02:55:27.536Z,20.50
2022-08-03T02:58:01.699Z,20.50
2022-08-03T03:00:32.276Z,20.40
2022-08-03T03:03:04.014Z,20.40
2022-08-03T03:05:55.075Z,20.30
2022-08-03T03:08:28.441Z,20.30
2022-08-03T03:10:59.292Z,20.30
2022-08-03T03:13:29.256Z,20.30
2022-08-03T03:16:00.822Z,20.20
2022-08-03T03:18:32.080Z,20.20
2022-08-03T03:21:01.739Z,20.20
2022-08-03T03:23:30.694Z,20.20
2022-08-03T03:26:00.244Z,20.20
2022-08-03T03:28:28.503Z,20.10
2022-08-03T03:30:56.685Z,20.10
2022-08-03T03:33:28.032Z,20.00
2022-08-03T03:35:59.615Z,20.00
2022-08-03T03:38:27.871Z,20.00
2022-08-03T03:40:57.069Z,19.90
2022-08-03T03:43:25.837Z,19.90
2022-08-03T03:45:54.216Z,19.80
2022-08-03T03:48:22.641Z,19.80
2022-08-03T03:50:51.607Z,19.90
2022-08-03T03:53:21.288Z,19.90
2022-08-03T03:55:59.317Z,19.90
2022-08-03T03:58:32.804Z,19.90
2022-08-03T04:01:01.392Z,19.90
2022-08-03T04:03:29.535Z,19.90
2022-08-03T04:06:15.827Z,19.80
2022-08-03T04:09:14.468Z,19.80
2022-08-03T04:11:47.622Z,19.80
2022-08-03T04:14:20.376Z,19.80
2022-08-03T04:16:51.208Z,19.80
2022-08-03T04:19:23.789Z,19.80
2022-08-03T04:21:57.039Z,19.80
2022-08-03T04:24:31.904Z,19.80
2022-08-03T04:27:01.968Z,19.80
2022-08-03T04:29:32.027Z,19.80
2022-08-03T04:32:03.224Z,19.70
2022-08-03T04:34:31.715Z,19.70
2022-08-03T04:37:02.985Z,19.70
2022-08-03T04:39:33.918Z,19.70
2022-08-03T04:42:08.043Z,19.60
2022-08-03T04:44:40.666Z,19.60
2022-08-03T04:47:09.404Z,19.70
2022-08-03T04:49:39.258Z,19.70
2022-08-03T04:52:10.237Z,19.80
2022-08-03T04:54:48.831Z,19.80
2022-08-03T04:57:22.394Z,19.80
2022-08-03T04:59:58.316Z,19.80
2022-08-03T05:02:31.935Z,19.90
2022-08-03T05:05:00.908Z,19.90
2022-08-03T05:07:35.768Z,20.00
2022-08-03T05:10:15.176Z,20.10
2022-08-03T05:12:45.524Z,20.10
2022-08-03T05:15:14.069Z,20.10
2022-08-03T05:17:42.867Z,20.10
2022-08-03T05:20:12.156Z,20.10
2022-08-03T05:22:40.603Z,20.10
2022-08-03T05:25:17.389Z,20.10
2022-08-03T05:27:48.909Z,20.10
2022-08-03T05:30:31.048Z,20.10
2022-08-03T05:33:03.771Z,20.10
2022-08-03T05:35:57.525Z,20.10
2022-08-03T05:38:28.356Z,20.10
2022-08-03T05:41:22.366Z,20.20
2022-08-03T05:43:47.781Z,20.30
2022-08-03T05:46:16.011Z,20.50
2022-08-03T05:48:44.109Z,20.50
2022-08-03T05:51:12.440Z,20.50
2022-08-03T05:53:41.131Z,20.60
2022-08-03T05:56:14.085Z,20.60
2022-08-03T05:58:43.572Z,20.70
2022-08-03T06:01:11.861Z,20.70
2022-08-03T06:03:40.035Z,20.70
2022-08-03T06:06:08.285Z,20.80
2022-08-03T06:08:36.449Z,20.90
2022-08-03T06:11:04.870Z,20.90
2022-08-03T06:13:35.597Z,21.00
2022-08-03T06:16:04.134Z,21.00
2022-08-03T06:18:32.199Z,21.10
2022-08-03T06:21:14.422Z,21.20
2022-08-03T06:23:54.578Z,21.30
2022-08-03T06:26:27.888Z,21.40
2022-08-03T06:28:57.602Z,21.40
2022-08-03T06:31:33.027Z,21.50
2022-08-03T06:34:34.506Z,21.50
2022-08-03T06:36:58.616Z,21.50
2022-08-03T06:39:29.580Z,21.60
2022-08-03T06:41:58.246Z,21.70
2022-08-03T06:44:27.784Z,21.80
2022-08-03T06:46:55.893Z,21.80
2022-08-03T06:49:24.199Z,21.90
2022-08-03T06:52:04.147Z,22.10
2022-08-03T06:54:35.748Z,22.20
2022-08-03T06:57:04.136Z,22.30
2022-08-03T07:00:10.937Z,22.40
2022-08-03T07:02:21.907Z,22.50
2022-08-03T07:04:50.313Z,22.40
2022-08-03T07:07:19.474Z,22.50
2022-08-03T07:09:56.835Z,22.60
2022-08-03T07:12:27.326Z,22.60
2022-08-03T07:15:00.890Z,22.70
2022-08-03T07:17:31.116Z,22.80
2022-08-03T07:19:59.714Z,22.90
2022-08-03T07:22:28.548Z,22.90
2022-08-03T07:24:56.762Z,22.90
2022-08-03T07:27:27.027Z,23.00
2022-08-03T07:29:56.792Z,23.10
2022-08-03T07:32:25.259Z,23.20
2022-08-03T07:34:57.096Z,23.30
2022-08-03T07:37:28.690Z,23.40
2022-08-03T07:39:56.824Z,23.50
2022-08-03T07:42:24.937Z,23.60
2022-08-03T07:44:53.052Z,23.70
2022-08-03T07:47:25.611Z,23.80
2022-08-03T07:50:03.281Z,24.00
2022-08-03T07:52:50.178Z,24.20
2022-08-03T07:55:19.611Z,24.40
2022-08-03T07:57:47.731Z,24.50
2022-08-03T08:00:19.113Z,24.50
2022-08-03T08:02:48.612Z,24.50
2022-08-03T08:05:16.711Z,24.60
2022-08-03T08:07:44.787Z,24.70
2022-08-03T08:10:19.775Z,24.70
2022-08-03T08:12:48.327Z,24.70
2022-08-03T08:15:16.405Z,24.80
2022-08-03T08:17:46.107Z,24.90
2022-08-03T08:20:23.901Z,25.10
2022-08-03T08:23:01.005Z,25.10
2022-08-03T08:25:30.927Z,25.20
2022-08-03T08:28:30.486Z,25.30
2022-08-03T08:30:50.538Z,25.60
2022-08-03T08:33:22.940Z,25.70
2022-08-03T08:35:54.516Z,25.80
2022-08-03T08:38:23.505Z,25.90
2022-08-03T08:40:52.332Z,26.10
2022-08-03T08:43:20.401Z,26.00
2022-08-03T08:45:50.714Z,26.10
2022-08-03T08:48:23.536Z,26.20
2022-08-03T08:50:55.574Z,26.30
2022-08-03T08:53:27.696Z,26.40
2022-08-03T08:56:00.869Z,26.40
2022-08-03T08:58:31.394Z,26.60
2022-08-03T09:00:59.815Z,26.50
2022-08-03T09:03:30.117Z,26.60
2022-08-03T09:06:01.547Z,26.80
2022-08-03T09:08:31.377Z,26.90
2022-08-03T09:11:00.158Z,27.00
2022-08-03T09:13:29.199Z,27.10
2022-08-03T09:16:14.516Z,27.20
2022-08-03T09:18:44.552Z,27.30
2022-08-03T09:21:37.533Z,27.60
2022-08-03T09:24:16.492Z,27.80
2022-08-03T09:26:54.023Z,28.10
2022-08-03T09:29:22.696Z,28.30
2022-08-03T09:31:53.131Z,28.50
2022-08-03T09:34:28.522Z,28.70
2022-08-03T09:36:58.736Z,29.00
2022-08-03T09:39:40.640Z,28.80
2022-08-03T09:42:14.634Z,29.10
2022-08-03T09:44:45.216Z,29.50
2022-08-03T09:47:17.375Z,29.70
2022-08-03T09:49:59.027Z,29.60
2022-08-03T09:52:50.139Z,29.80
2022-08-03T09:56:35.216Z,30.00
2022-08-03T09:58:11.538Z,29.90
2022-08-03T10:00:55.721Z,30.20
2022-08-03T10:03:25.146Z,30.30
2022-08-03T10:05:58.972Z,30.30
2022-08-03T10:08:28.639Z,30.30
2022-08-03T10:10:58.637Z,30.40
2022-08-03T10:13:26.844Z,30.50
2022-08-03T10:16:23.956Z,30.40
2022-08-03T10:18:43.191Z,30.80
2022-08-03T10:21:14.743Z,31.30
2022-08-03T10:23:44.557Z,31.40
2022-08-03T10:26:17.376Z,31.20
2022-08-03T10:28:50.982Z,31.30
2022-08-03T10:31:21.699Z,31.60
2022-08-03T10:33:53.409Z,31.80
2022-08-03T10:36:24.821Z,31.90
2022-08-03T10:38:56.519Z,32.00
2022-08-03T10:41:27.178Z,32.20
2022-08-03T10:44:00.260Z,32.30
2022-08-03T10:46:29.670Z,32.50
2022-08-03T10:48:58.670Z,32.40
2022-08-03T10:51:31.979Z,32.20
2022-08-03T10:54:02.179Z,32.30
2022-08-03T10:56:57.647Z,32.70
2022-08-03T11:00:05.030Z,33.00
2022-08-03T11:03:08.630Z,33.20
2022-08-03T11:05:39.712Z,33.30
2022-08-03T11:08:23.482Z,33.60
2022-08-03T11:10:54.183Z,33.90
2022-08-03T11:13:33.887Z,34.10
2022-08-03T11:16:21.940Z,34.30
2022-08-03T11:18:57.919Z,34.30
2022-08-03T11:21:55.698Z,34.30
2022-08-03T11:25:00.905Z,34.40
2022-08-03T11:27:32.926Z,34.40
2022-08-03T11:30:05.481Z,34.00
2022-08-03T11:32:52.589Z,33.80
2022-08-03T11:35:22.382Z,34.10
2022-08-03T11:38:11.689Z,34.20
2022-08-03T11:40:42.711Z,34.30
2022-08-03T11:43:47.280Z,34.00
2022-08-03T11:46:28.569Z,33.80
2022-08-03T11:49:10.471Z,33.90
2022-08-03T11:51:40.601Z,34.20
2022-08-03T11:54:09.174Z,34.20
2022-08-03T11:56:47.904Z,34.30
2022-08-03T11:59:21.731Z,34.40
2022-08-03T12:01:50.961Z,34.20
2022-08-03T12:04:19.037Z,34.20
2022-08-03T12:07:00.458Z,34.50
2022-08-03T12:09:28.689Z,34.90
2022-08-03T12:12:00.230Z,35.10
2022-08-03T12:14:49.276Z,35.20
2022-08-03T12:17:19.226Z,34.90
2022-08-03T12:19:47.697Z,34.90
2022-08-03T12:22:16.843Z,35.00
2022-08-03T12:24:47.246Z,35.20
2022-08-03T12:27:26.463Z,35.30
2022-08-03T12:29:59.046Z,35.40
2022-08-03T12:32:27.933Z,35.30
2022-08-03T12:35:00.094Z,35.40
2022-08-03T12:37:29.200Z,35.60
2022-08-03T12:40:02.601Z,35.50
2022-08-03T12:42:35.097Z,35.30
2022-08-03T12:45:26.627Z,35.40
2022-08-03T12:47:56.055Z,35.70
2022-08-03T12:50:29.236Z,35.80
2022-08-03T12:53:00.226Z,35.80
2022-08-03T12:56:04.344Z,36.10
2022-08-03T12:58:34.581Z,36.30
2022-08-03T13:01:09.772Z,36.40
2022-08-03T13:03:43.625Z,36.40
2022-08-03T13:06:15.192Z,36.40
2022-08-03T13:08:44.315Z,36.40
2022-08-03T13:11:50.661Z,36.40
2022-08-03T13:14:16.653Z,35.90
2022-08-03T13:16:49.631Z,35.60
2022-08-03T13:19:17.744Z,35.20
2022-08-03T13:22:03.145Z,35.10
2022-08-03T13:24:33.739Z,34.70
2022-08-03T13:28:01.129Z,34.60
2022-08-03T13:29:50.791Z,35.00
2022-08-03T13:32:20.968Z,35.40
2022-08-03T13:34:49.325Z,35.50
2022-08-03T13:37:17.522Z,35.30
2022-08-03T13:39:58.324Z,35.00
2022-08-03T13:42:30.108Z,34.80
2022-08-03T13:44:58.404Z,34.70
2022-08-03T13:47:28.184Z,34.70
2022-08-03T13:50:01.170Z,34.80
2022-08-03T13:52:31.633Z,34.80
2022-08-03T13:54:59.966Z,35.00
2022-08-03T13:58:04.606Z,35.20
2022-08-03T14:00:28.190Z,35.20
2022-08-03T14:03:05.343Z,35.00
2022-08-03T14:05:35.728Z,34.90
2022-08-03T14:08:05.866Z,34.90
2022-08-03T14:10:35.925Z,35.10
2022-08-03T14:13:04.783Z,35.40
2022-08-03T14:15:37.234Z,35.70
2022-08-03T14:18:12.707Z,35.70
2022-08-03T14:20:49.005Z,35.60
2022-08-03T14:23:18.640Z,35.70
2022-08-03T14:25:51.505Z,35.50
2022-08-03T14:28:22.787Z,35.30
2022-08-03T14:30:51.272Z,35.30
2022-08-03T14:33:20.831Z,35.30
2022-08-03T14:35:49.234Z,35.50
2022-08-03T14:38:17.646Z,35.50
2022-08-03T14:40:45.819Z,35.30
2022-08-03T14:43:14.201Z,35.10
2022-08-03T14:45:42.749Z,35.10
2022-08-03T14:50:10.424Z,35.10
2022-08-03T14:51:02.167Z,35.30
2022-08-03T14:53:30.597Z,35.10
2022-08-03T14:55:58.677Z,35.00
2022-08-03T14:58:27.058Z,34.90
2022-08-03T15:00:56.217Z,34.70
2022-08-03T15:03:26.313Z,34.80
2022-08-03T15:05:57.105Z,34.90
2022-08-03T15:08:27.723Z,35.00
2022-08-03T15:10:56.441Z,35.00
2022-08-03T15:13:25.381Z,34.90
2022-08-03T15:15:53.559Z,35.00
2022-08-03T15:18:21.580Z,35.10
2022-08-03T15:20:50.908Z,35.10
2022-08-03T15:23:19.887Z,35.10
2022-08-03T15:26:31.813Z,35.10
2022-08-03T15:28:37.851Z,35.10
2022-08-03T15:31:06.745Z,35.10
2022-08-03T15:33:35.255Z,35.00
2022-08-03T15:36:04.036Z,35.00
2022-08-03T15:38:32.242Z,35.00
2022-08-03T15:41:01.705Z,34.90
2022-08-03T15:43:29.743Z,34.90
2022-08-03T15:46:27.765Z,34.80
2022-08-03T15:48:47.183Z,35.00
2022-08-03T15:51:15.809Z,35.10
2022-08-03T15:53:43.872Z,35.10
2022-08-03T15:56:18.430Z,35.00
2022-08-03T15:59:03.618Z,34.90
2022-08-03T16:01:35.599Z,34.80
2022-08-03T16:04:04.555Z,34.70
2022-08-03T16:06:35.313Z,34.60
2022-08-03T16:09:23.000Z,34.50
2022-08-03T16:11:55.963Z,34.20
2022-08-03T16:14:32.590Z,34.20
2022-08-03T16:17:06.432Z,34.10
2022-08-03T16:19:34.534Z,34.10
2022-08-03T16:22:03.831Z,34.00
2022-08-03T16:24:32.468Z,33.80
2022-08-03T16:27:02.389Z,33.70
2022-08-03T16:29:30.517Z,33.60
2022-08-03T16:31:58.583Z,33.60
2022-08-03T16:34:26.732Z,33.70
2022-08-03T16:36:55.486Z,33.70
2022-08-03T16:39:23.640Z,33.60
2022-08-03T16:41:53.886Z,33.50
2022-08-03T16:44:32.075Z,33.40
2022-08-03T16:47:00.585Z,33.50
2022-08-03T16:49:54.593Z,33.50
2022-08-03T16:52:18.082Z,33.40
2022-08-03T16:54:52.543Z,33.40
2022-08-03T16:57:56.605Z,33.30
2022-08-03T17:00:34.376Z,33.20
2022-08-03T17:03:19.094Z,33.10
2022-08-03T17:05:50.196Z,33.00
2022-08-03T17:08:26.837Z,33.00
2022-08-03T17:10:56.046Z,33.00
2022-08-03T17:13:38.811Z,32.80
2022-08-03T17:16:12.186Z,32.70
2022-08-03T17:18:48.783Z,32.70
2022-08-03T17:21:22.949Z,32.70
2022-08-03T17:23:58.379Z,32.60
2022-08-03T17:26:30.611Z,32.60
2022-08-03T17:29:12.909Z,32.40
2022-08-03T17:31:49.557Z,32.50
2022-08-03T17:34:19.077Z,32.50
2022-08-03T17:37:05.517Z,32.50
2022-08-03T17:42:30.542Z,32.30
2022-08-03T17:45:02.491Z,32.20
2022-08-03T17:47:41.951Z,32.00
2022-08-03T17:50:24.607Z,32.00
2022-08-03T17:53:00.979Z,32.00
2022-08-03T17:55:57.043Z,31.90
2022-08-03T17:58:26.565Z,31.90
2022-08-03T18:02:00.761Z,31.70
2022-08-03T18:04:10.709Z,31.70
2022-08-03T18:06:56.251Z,31.60
2022-08-03T18:10:03.484Z,31.50
2022-08-03T18:12:27.035Z,31.30
2022-08-03T18:15:07.755Z,31.10
2022-08-03T18:17:55.538Z,31.10
2022-08-03T18:20:41.011Z,31.00
2022-08-03T18:23:25.243Z,30.90
2022-08-03T18:26:01.511Z,30.80
2022-08-03T18:28:30.564Z,30.50
2022-08-03T18:31:00.383Z,30.50
2022-08-03T18:34:19.854Z,30.50
2022-08-03T18:36:30.378Z,30.50
2022-08-03T18:39:00.439Z,30.40
2022-08-03T18:41:35.405Z,30.30
2022-08-03T18:44:45.570Z,30.10
2022-08-03T18:47:17.364Z,30.20
2022-08-03T18:49:59.682Z,30.20
2022-08-03T18:52:37.321Z,30.20
2022-08-03T18:55:20.845Z,30.10
2022-08-03T18:58:02.891Z,30.00
2022-08-03T19:00:42.665Z,29.70
2022-08-03T19:03:25.739Z,29.70
2022-08-03T19:06:20.374Z,29.60
2022-08-03T19:08:55.542Z,29.40
2022-08-03T19:11:28.298Z,29.40
2022-08-03T19:14:00.353Z,29.40
2022-08-03T19:16:35.708Z,29.20
2022-08-03T19:19:11.084Z,29.10
2022-08-03T19:21:42.831Z,29.00
2022-08-03T19:24:14.636Z,29.00
2022-08-03T19:26:43.902Z,29.00
2022-08-03T19:29:18.790Z,28.90
2022-08-03T19:31:59.085Z,29.00
2022-08-03T19:34:29.733Z,28.90
2022-08-03T19:36:58.810Z,28.90
2022-08-03T19:39:28.267Z,28.90
2022-08-03T19:42:08.202Z,28.50
2022-08-03T19:44:47.363Z,28.30
2022-08-03T19:47:23.924Z,28.20
2022-08-03T19:50:06.254Z,28.10
2022-08-03T19:52:42.365Z,28.10
2022-08-03T19:55:12.875Z,28.10
2022-08-03T19:57:44.132Z,28.10
2022-08-03T20:00:19.184Z,27.90
2022-08-03T20:02:47.621Z,28.10
2022-08-03T20:05:19.095Z,28.10
2022-08-03T20:07:48.685Z,27.90
2022-08-03T20:10:19.560Z,28.00
2022-08-03T20:12:49.571Z,28.00
2022-08-03T20:15:31.307Z,28.00
2022-08-03T20:18:00.451Z,28.00
2022-08-03T20:20:31.820Z,27.90
2022-08-03T20:23:01.753Z,27.80
2022-08-03T20:25:38.517Z,27.80
2022-08-03T20:28:14.492Z,27.90
2022-08-03T20:30:44.205Z,27.90
2022-08-03T20:33:18.916Z,27.80
2022-08-03T20:38:43.552Z,27.70
2022-08-03T20:41:17.152Z,27.60
2022-08-03T20:43:45.967Z,27.60
2022-08-03T20:46:30.928Z,27.50
2022-08-03T20:49:05.297Z,27.50
2022-08-03T20:51:49.156Z,27.50
2022-08-03T20:54:22.900Z,27.50
2022-08-03T20:57:00.376Z,27.50
2022-08-03T20:59:36.880Z,27.40
2022-08-03T21:02:19.736Z,27.40
2022-08-03T21:04:59.238Z,27.30
2022-08-03T21:08:03.900Z,27.20
2022-08-03T21:10:27.923Z,27.20
2022-08-03T21:13:07.169Z,27.80
2022-08-03T21:16:04.828Z,27.10
2022-08-03T21:18:43.685Z,27.00
2022-08-03T21:21:14.258Z,26.90
2022-08-03T21:23:48.995Z,26.70
2022-08-03T21:26:18.867Z,26.70
2022-08-03T21:28:51.944Z,26.80
2022-08-03T21:31:25.057Z,26.80
2022-08-03T21:33:56.616Z,26.80
2022-08-03T21:36:25.505Z,26.80
2022-08-03T21:38:56.115Z,26.70
2022-08-03T21:41:25.971Z,26.70
2022-08-03T21:43:55.599Z,26.60
2022-08-03T21:46:24.739Z,26.50
2022-08-03T21:50:06.894Z,26.50
2022-08-03T21:51:46.083Z,26.50
2022-08-03T21:54:14.904Z,26.40
2022-08-03T21:56:47.318Z,26.40
2022-08-03T21:59:20.290Z,26.30
2022-08-03T22:01:51.351Z,26.30
2022-08-03T22:04:50.786Z,26.20
2022-08-03T22:07:12.163Z,26.20
2022-08-03T22:09:40.587Z,26.10
2022-08-03T22:12:24.040Z,26.10
2022-08-03T22:14:59.997Z,26.10
2022-08-03T22:17:56.084Z,26.10
2022-08-03T22:20:19.463Z,26.10
2022-08-03T22:22:55.138Z,26.00
2022-08-03T22:25:27.193Z,25.90
2022-08-03T22:27:56.052Z,25.90
2022-08-03T22:30:25.630Z,25.90
2022-08-03T22:32:56.224Z,25.90
2022-08-03T22:35:26.842Z,25.80
2022-08-03T22:37:56.786Z,25.80
2022-08-03T22:40:25.025Z,25.80
2022-08-03T22:42:53.460Z,25.80
2022-08-03T22:46:06.445Z,25.70
2022-08-03T22:48:12.012Z,25.70
2022-08-03T22:50:41.442Z,25.70
2022-08-03T22:53:10.169Z,25.60
2022-08-03T22:55:38.591Z,25.60
2022-08-03T22:58:06.614Z,25.50
2022-08-03T23:00:34.892Z,25.50
2022-08-03T23:03:06.344Z,25.50
2022-08-03T23:06:00.476Z,25.40
2022-08-03T23:08:27.645Z,25.40
2022-08-03T23:11:00.892Z,25.40
2022-08-03T23:13:32.518Z,25.40
2022-08-03T23:16:01.995Z,25.30
2022-08-03T23:18:36.763Z,25.20
2022-08-03T23:21:11.353Z,25.20
2022-08-03T23:23:44.623Z,25.20
2022-08-03T23:26:14.380Z,25.10
2022-08-03T23:28:46.350Z,25.10
2022-08-03T23:31:15.723Z,25.10
2022-08-03T23:33:46.248Z,25.10
2022-08-03T23:36:31.098Z,25.00
2022-08-03T23:39:02.773Z,25.00
2022-08-03T23:41:31.802Z,25.00
2022-08-03T23:44:02.111Z,25.00
2022-08-03T23:46:31.974Z,25.00
2022-08-03T23:49:01.166Z,25.00
2022-08-03T23:51:41.083Z,25.00
2022-08-03T23:54:22.375Z,24.90
2022-08-03T23:56:57.292Z,24.90
2022-08-03T23:59:33.357Z,24.90
